Weather at Reynolds Field

Public forecast

Using degrees Fahrenheit for public forecast. Weather courtesy of forecast.io.

Closest aviation weather report (METAR) to Reynolds Field

Closest report is Princeton Municipal Airport, 4.2 nm (7.7 km) WNW.

2024/07/25 10:35 (retrieved 15 minutes ago)

KPNM 251035Z AUTO 00000KT 1SM BR CLR 12/11 A3024 RMK AO2 VIS 1/4V4

Closest aviation forecast (TAF) to Reynolds Field

Closest forecast is Saint Cloud Regional Airport, 23.0 nm (42.5 km) W.

2024/07/25 06:22 (retrieved 4 hours ago)

TAF KSTC 250520Z 2506/2606 11003KT P6SM FEW200 FM251400 15008KT P6SM SKC FM260000 14005KT P6SM SKC